Pittsburgh, PA

5:00 AM EST on December 07, 2016 (GMT -0500)
Carrick/Pittsburgh | | Change Station

Elev 1086 ft 40.39 °N, 79.99 °W | Updated 1 minute ago

Overcast
Overcast
36.7 °F
Feels Like 37 °F
N
0.0
Wind Variable Wind from North
Gusts 0.0 mph

Today
High -- | Low -- °F
--% Chance of Precip.
Yesterday
High -- | Low -- °F
Precip. -- in
Pressure 30.03 in
Visibility 9.0 miles
Clouds Overcast 2200 ft
Windchill 37 °F
Dew Point 34 °F
Humidity 88%
Rainfall 0.00 in
Snow Depth Not available.
7:29 AM 4:53 PM
Waxing Crescent, 51% visible
METAR KAGC 070953Z 28009KT 9SM OVC022 03/M01 A2998 RMK AO2 SLP167 T00281011
Pressure 30.03 in
Visibility 9.0 miles
Clouds Overcast 2200 ft
Windchill 37 °F
Dew Point 34 °F
Humidity 88%
Rainfall 0.00 in
Snow Depth Not available.
7:29 AM 4:53 PM
Waxing Crescent, 51% visible
METAR KAGC 070953Z 28009KT 9SM OVC022 03/M01 A2998 RMK AO2 SLP167 T00281011

10-Day Weather Forecast

Almanac

Astronomy

Dec. 07, 2016 Rise Set
Actual Time
Civil Twilight
Nautical Twilight
Astronomical Twilight
Moon
Length of Visible Light
Length of Day
Tomorrow will be .
, % of the Moon is Illuminated

Today's Extremes

State Highs State Lows

Community

WunderPhotos

Upload Photos

1,956,111 photos uploaded!

WunderBlog® & News

Nearby

Air Quality

  Air Quality AQ Index Pollutant
Not available.

Snow Depth

Station Depth Elevation

Earthquake Activity

City Distance Mag. Time & Date
Minimum magnitude displayed is 2.5.

Coastal Water Temperatures

Place Temperature

Stations

Nearby Weather Stations

Station Location Temp. Windchill Dew Point Humidity Wind Precip. Elev Updated Type
                   

Watches & Warnings

There are currently no watches in effect.